createdAt,value
2022-12-31T00:00:47.044Z,26.79
2022-12-31T00:03:13.677Z,26.75
2022-12-31T00:05:40.258Z,26.76
2022-12-31T00:08:06.660Z,26.61
2022-12-31T00:10:41.339Z,26.66
2022-12-31T00:13:08.887Z,26.59
2022-12-31T00:15:35.327Z,26.73
2022-12-31T00:18:01.824Z,26.62
2022-12-31T00:20:28.511Z,26.74
2022-12-31T00:22:55.079Z,26.62
2022-12-31T00:25:21.474Z,26.70
2022-12-31T00:27:48.129Z,26.73
2022-12-31T00:30:14.580Z,26.76
2022-12-31T00:32:41.019Z,26.64
2022-12-31T00:35:07.617Z,26.74
2022-12-31T00:37:34.050Z,26.65
2022-12-31T00:40:00.509Z,26.80
2022-12-31T00:42:27.043Z,26.68
2022-12-31T00:44:53.517Z,26.63
2022-12-31T00:47:20.087Z,26.55
2022-12-31T00:49:46.510Z,26.68
2022-12-31T00:52:15.935Z,26.62
2022-12-31T00:54:42.374Z,26.74
2022-12-31T00:57:08.869Z,26.74
2022-12-31T00:59:35.345Z,26.76
2022-12-31T01:02:01.859Z,26.68
2022-12-31T01:04:28.409Z,26.72
2022-12-31T01:06:55.020Z,26.63
2022-12-31T01:09:21.737Z,26.75
2022-12-31T01:11:49.894Z,26.78
2022-12-31T01:14:16.815Z,26.73
2022-12-31T01:16:47.669Z,26.68
2022-12-31T01:19:18.264Z,26.57
2022-12-31T01:21:45.503Z,26.46
2022-12-31T01:24:12.091Z,26.62
2022-12-31T01:26:38.556Z,26.58
2022-12-31T01:29:05.478Z,26.74
2022-12-31T01:31:32.790Z,26.78
2022-12-31T01:33:59.479Z,26.82
2022-12-31T01:36:26.814Z,26.74
2022-12-31T01:38:53.887Z,26.67
2022-12-31T01:41:21.981Z,26.84
2022-12-31T01:43:49.235Z,26.83
2022-12-31T01:46:29.635Z,26.83
2022-12-31T01:48:57.017Z,26.76
2022-12-31T01:51:23.997Z,26.81
2022-12-31T01:53:50.390Z,26.78
2022-12-31T01:56:16.848Z,26.76
2022-12-31T01:58:44.011Z,26.68
2022-12-31T02:01:10.506Z,26.72
2022-12-31T02:03:36.931Z,26.70
2022-12-31T02:06:23.638Z,26.73
2022-12-31T02:08:50.191Z,26.77
2022-12-31T02:11:29.701Z,26.77
2022-12-31T02:13:58.761Z,26.70
2022-12-31T02:16:44.392Z,26.66
2022-12-31T02:19:26.705Z,26.74
2022-12-31T02:21:53.131Z,26.72
2022-12-31T02:24:25.459Z,26.77
2022-12-31T02:27:09.229Z,26.67
2022-12-31T02:29:47.903Z,26.68
2022-12-31T02:32:21.017Z,26.68
2022-12-31T02:34:50.543Z,26.76
2022-12-31T02:37:16.983Z,26.76
2022-12-31T02:39:43.384Z,26.86
2022-12-31T02:42:10.239Z,26.72
2022-12-31T02:44:37.174Z,26.80
2022-12-31T02:47:09.591Z,26.85
2022-12-31T02:49:57.187Z,26.80
2022-12-31T02:52:26.745Z,26.83
2022-12-31T02:55:03.310Z,26.79
2022-12-31T02:57:50.805Z,26.67
2022-12-31T03:00:36.080Z,26.48
2022-12-31T03:03:02.610Z,26.40
2022-12-31T03:05:29.643Z,26.08
2022-12-31T03:07:56.148Z,25.77
2022-12-31T03:10:23.705Z,25.56
2022-12-31T03:12:51.477Z,25.08
2022-12-31T03:15:44.353Z,24.87
2022-12-31T03:18:14.472Z,24.75
2022-12-31T03:21:00.436Z,24.52
2022-12-31T03:23:36.129Z,24.26
2022-12-31T03:26:02.731Z,24.02
2022-12-31T03:28:30.037Z,23.71
2022-12-31T03:31:00.344Z,23.58
2022-12-31T03:33:26.879Z,23.41
2022-12-31T03:35:53.324Z,23.35
2022-12-31T03:38:19.972Z,23.36
2022-12-31T03:40:47.275Z,23.12
2022-12-31T03:43:13.684Z,23.20
2022-12-31T03:45:40.175Z,23.30
2022-12-31T03:48:07.242Z,23.73
2022-12-31T03:50:33.850Z,24.13
2022-12-31T03:53:00.264Z,24.65
2022-12-31T03:55:26.669Z,25.48
2022-12-31T03:57:53.048Z,26.34
2022-12-31T04:00:19.964Z,27.09
2022-12-31T04:02:46.845Z,27.85
2022-12-31T04:05:13.315Z,28.61
2022-12-31T04:07:39.989Z,29.30
2022-12-31T04:10:07.313Z,29.91
2022-12-31T04:12:33.763Z,30.39
2022-12-31T04:15:00.263Z,30.77
2022-12-31T04:17:26.914Z,30.98
2022-12-31T04:19:53.354Z,31.08
2022-12-31T04:22:19.819Z,31.10
2022-12-31T04:24:46.332Z,31.10
2022-12-31T04:27:12.858Z,31.09
2022-12-31T04:29:39.493Z,31.04
2022-12-31T04:32:06.219Z,30.95
2022-12-31T04:34:32.763Z,30.95
2022-12-31T04:36:59.152Z,30.98
2022-12-31T04:39:25.644Z,30.96
2022-12-31T04:41:52.178Z,30.91
2022-12-31T04:44:18.761Z,30.87
2022-12-31T04:46:45.154Z,30.91
2022-12-31T04:49:11.591Z,30.94
2022-12-31T04:51:38.085Z,30.97
2022-12-31T04:54:04.554Z,30.98
2022-12-31T04:56:31.183Z,30.98
2022-12-31T04:58:57.610Z,31.00
2022-12-31T05:01:26.269Z,31.05
2022-12-31T05:03:52.823Z,31.03
2022-12-31T05:06:20.196Z,31.08
2022-12-31T05:08:46.814Z,31.02
2022-12-31T05:11:13.301Z,30.96
2022-12-31T05:13:39.841Z,31.04
2022-12-31T05:16:06.487Z,31.02
2022-12-31T05:18:33.066Z,31.01
2022-12-31T05:20:59.486Z,30.96
2022-12-31T05:23:26.038Z,30.98
2022-12-31T05:25:52.566Z,30.95
2022-12-31T05:28:18.985Z,31.01
2022-12-31T05:30:47.501Z,30.97
2022-12-31T05:33:13.911Z,31.00
2022-12-31T05:35:40.327Z,31.02
2022-12-31T05:38:06.711Z,31.00
2022-12-31T05:40:33.127Z,31.00
2022-12-31T05:42:59.543Z,30.98
2022-12-31T05:45:30.702Z,31.03
2022-12-31T05:47:57.474Z,31.05
2022-12-31T05:50:23.875Z,31.04
2022-12-31T05:52:50.297Z,31.09
2022-12-31T05:55:16.725Z,31.06
2022-12-31T05:57:43.125Z,30.99
2022-12-31T06:00:10.134Z,30.95
2022-12-31T06:02:36.587Z,30.88
2022-12-31T06:05:03.069Z,30.89
2022-12-31T06:07:30.175Z,30.99
2022-12-31T06:09:56.720Z,31.06
2022-12-31T06:12:23.141Z,31.08
2022-12-31T06:14:49.584Z,31.16
2022-12-31T06:17:16.025Z,31.12
2022-12-31T06:19:42.426Z,31.09
2022-12-31T06:22:08.820Z,31.07
2022-12-31T06:24:35.349Z,31.06
2022-12-31T06:27:01.884Z,31.02
2022-12-31T06:29:28.311Z,30.98
2022-12-31T06:31:54.860Z,31.03
2022-12-31T06:34:21.288Z,31.04
2022-12-31T06:36:47.713Z,31.04
2022-12-31T06:39:14.165Z,31.08
2022-12-31T06:41:40.684Z,31.10
2022-12-31T06:44:07.199Z,31.09
2022-12-31T06:46:33.663Z,31.14
2022-12-31T06:49:00.180Z,31.04
2022-12-31T06:51:26.619Z,31.02
2022-12-31T06:53:53.134Z,31.08
2022-12-31T06:56:20.919Z,31.18
2022-12-31T06:58:47.408Z,31.23
2022-12-31T07:01:30.998Z,31.29
2022-12-31T07:04:00.818Z,31.31
2022-12-31T07:06:39.335Z,31.30
2022-12-31T07:09:08.536Z,31.26
2022-12-31T07:11:50.685Z,31.23
2022-12-31T07:14:26.462Z,31.22
2022-12-31T07:17:04.974Z,31.19
2022-12-31T07:19:42.272Z,31.25
2022-12-31T07:22:12.139Z,31.17
2022-12-31T07:24:38.703Z,31.18
2022-12-31T07:27:05.096Z,31.25
2022-12-31T07:29:46.783Z,31.23
2022-12-31T07:32:33.308Z,31.20
2022-12-31T07:35:15.208Z,31.23
2022-12-31T07:37:41.629Z,31.25
2022-12-31T07:40:17.673Z,31.20
2022-12-31T07:43:02.964Z,31.24
2022-12-31T07:45:38.088Z,31.21
2022-12-31T07:48:04.713Z,31.25
2022-12-31T07:50:31.306Z,31.22
2022-12-31T07:52:58.015Z,31.19
2022-12-31T07:55:24.489Z,31.18
2022-12-31T07:58:13.988Z,31.17
2022-12-31T08:00:40.563Z,31.16
2022-12-31T08:03:15.735Z,31.16
2022-12-31T08:05:45.202Z,31.16
2022-12-31T08:08:17.092Z,31.18
2022-12-31T08:10:59.351Z,31.20
2022-12-31T08:13:25.819Z,31.25
2022-12-31T08:15:52.433Z,31.27
2022-12-31T08:18:18.976Z,31.26
2022-12-31T08:20:51.321Z,31.33
2022-12-31T08:23:36.721Z,31.27
2022-12-31T08:26:03.212Z,31.26
2022-12-31T08:28:35.717Z,31.30
2022-12-31T08:31:04.378Z,31.28
2022-12-31T08:33:30.815Z,31.23
2022-12-31T08:36:03.660Z,31.21
2022-12-31T08:38:33.223Z,31.25
2022-12-31T08:41:03.135Z,31.24
2022-12-31T08:44:05.367Z,31.26
2022-12-31T08:46:33.627Z,31.21
2022-12-31T08:49:00.185Z,31.20
2022-12-31T08:51:26.784Z,31.28
2022-12-31T08:53:53.497Z,31.33
2022-12-31T08:56:25.794Z,31.26
2022-12-31T08:59:15.511Z,31.25
2022-12-31T09:02:01.218Z,31.06
2022-12-31T09:04:30.892Z,30.80
2022-12-31T09:06:59.174Z,30.38
2022-12-31T09:09:28.755Z,29.90
2022-12-31T09:12:12.628Z,29.39
2022-12-31T09:14:48.999Z,28.89
2022-12-31T09:17:15.529Z,28.28
2022-12-31T09:19:41.918Z,27.84
2022-12-31T09:22:09.929Z,27.45
2022-12-31T09:24:36.552Z,27.48
2022-12-31T09:27:29.099Z,27.07
2022-12-31T09:30:01.685Z,27.21
2022-12-31T09:32:35.568Z,27.47
2022-12-31T09:35:20.485Z,27.76
2022-12-31T09:37:47.896Z,28.05
2022-12-31T09:40:23.456Z,28.24
2022-12-31T09:42:57.900Z,28.19
2022-12-31T09:45:43.397Z,28.17
2022-12-31T09:48:09.807Z,28.04
2022-12-31T09:50:39.351Z,28.03
2022-12-31T09:53:05.756Z,27.93
2022-12-31T09:55:44.497Z,27.94
2022-12-31T09:58:14.073Z,27.86
2022-12-31T10:00:44.629Z,27.79
2022-12-31T10:03:24.131Z,27.72
2022-12-31T10:05:53.011Z,27.67
2022-12-31T10:08:46.196Z,27.65
2022-12-31T10:11:12.618Z,27.68
2022-12-31T10:13:44.155Z,27.67
2022-12-31T10:16:16.183Z,27.55
2022-12-31T10:18:50.178Z,27.62
2022-12-31T10:21:35.304Z,27.62
2022-12-31T10:24:17.155Z,27.56
2022-12-31T10:27:14.278Z,27.40
2022-12-31T10:29:43.061Z,27.45
2022-12-31T10:32:15.533Z,27.43
2022-12-31T10:34:51.083Z,27.48
2022-12-31T10:37:18.181Z,27.35
2022-12-31T10:40:00.776Z,27.43
2022-12-31T10:42:36.754Z,27.33
2022-12-31T10:45:26.584Z,27.47
2022-12-31T10:47:52.978Z,27.43
2022-12-31T10:50:22.416Z,27.43
2022-12-31T10:52:58.074Z,27.36
2022-12-31T10:55:25.468Z,27.42
2022-12-31T10:58:03.854Z,27.40
2022-12-31T11:00:54.106Z,27.42
2022-12-31T11:03:29.065Z,27.34
2022-12-31T11:06:15.155Z,27.31
2022-12-31T11:08:57.968Z,27.29
2022-12-31T11:11:27.409Z,27.20
2022-12-31T11:14:06.301Z,27.28
2022-12-31T11:16:32.724Z,27.24
2022-12-31T11:19:06.318Z,27.26
2022-12-31T11:21:56.316Z,27.25
2022-12-31T11:24:28.960Z,27.32
2022-12-31T11:27:08.398Z,27.27
2022-12-31T11:29:41.179Z,27.28
2022-12-31T11:32:07.787Z,27.11
2022-12-31T11:34:40.269Z,27.21
2022-12-31T11:37:25.436Z,27.18
2022-12-31T11:40:01.040Z,27.22
2022-12-31T11:42:42.930Z,27.18
2022-12-31T11:45:12.184Z,27.16
2022-12-31T11:48:28.710Z,27.09
2022-12-31T11:50:56.102Z,27.15
2022-12-31T11:53:39.619Z,27.07
2022-12-31T11:56:06.029Z,26.96
2022-12-31T11:58:32.507Z,27.10
2022-12-31T12:01:12.682Z,27.06
2022-12-31T12:03:43.266Z,26.99
2022-12-31T12:06:13.276Z,26.98
2022-12-31T12:08:39.761Z,27.07
2022-12-31T12:11:25.356Z,26.97
2022-12-31T12:13:51.919Z,27.02
2022-12-31T12:16:21.847Z,26.99
2022-12-31T12:18:51.969Z,27.05
2022-12-31T12:21:21.894Z,26.92
2022-12-31T12:23:55.647Z,26.98
2022-12-31T12:26:38.365Z,26.88
2022-12-31T12:29:11.744Z,26.93
2022-12-31T12:31:38.522Z,26.71
2022-12-31T12:34:05.384Z,26.67
2022-12-31T12:36:32.010Z,26.60
2022-12-31T12:39:02.368Z,26.69
2022-12-31T12:41:28.777Z,26.59
2022-12-31T12:44:01.915Z,26.69
2022-12-31T12:46:32.406Z,26.58
2022-12-31T12:48:58.858Z,26.66
2022-12-31T12:51:28.015Z,26.57
2022-12-31T12:54:04.536Z,26.61
2022-12-31T12:56:35.209Z,26.49
2022-12-31T12:59:17.368Z,26.62
2022-12-31T13:01:52.871Z,26.59
2022-12-31T13:04:42.546Z,26.63
2022-12-31T13:07:27.821Z,26.51
2022-12-31T13:10:12.687Z,26.52
2022-12-31T13:15:42.591Z,26.46
2022-12-31T13:18:18.260Z,26.45
2022-12-31T13:20:47.455Z,26.46
2022-12-31T13:23:19.620Z,26.37
2022-12-31T13:25:52.151Z,26.35
2022-12-31T13:28:20.978Z,26.35
2022-12-31T13:30:50.066Z,26.36
2022-12-31T13:33:20.639Z,26.41
2022-12-31T13:35:51.857Z,26.29
2022-12-31T13:38:19.532Z,26.36
2022-12-31T13:41:00.739Z,26.35
2022-12-31T13:43:30.224Z,26.38
2022-12-31T13:46:23.149Z,26.35
2022-12-31T13:48:53.298Z,26.35
2022-12-31T13:51:33.384Z,26.21
2022-12-31T13:54:06.988Z,26.27
2022-12-31T13:56:37.476Z,26.17
2022-12-31T13:59:22.853Z,26.18
2022-12-31T14:01:53.430Z,26.18
2022-12-31T14:04:37.132Z,26.27
2022-12-31T14:07:10.753Z,26.18
2022-12-31T14:09:37.832Z,26.27
2022-12-31T14:12:20.201Z,26.13
2022-12-31T14:14:53.565Z,26.18
2022-12-31T14:17:20.005Z,26.04
2022-12-31T14:20:15.944Z,26.11
2022-12-31T14:22:45.828Z,26.04
2022-12-31T14:25:17.531Z,26.16
2022-12-31T14:27:43.942Z,26.15
2022-12-31T14:30:19.912Z,26.08
2022-12-31T14:32:46.393Z,26.02
2022-12-31T14:35:22.223Z,25.99
2022-12-31T14:37:55.703Z,26.02
2022-12-31T14:40:41.816Z,26.04
2022-12-31T14:43:14.175Z,26.07
2022-12-31T14:46:00.860Z,26.08
2022-12-31T14:48:29.549Z,25.99
2022-12-31T14:50:55.990Z,25.87
2022-12-31T14:53:23.503Z,25.98
2022-12-31T14:55:59.783Z,26.06
2022-12-31T14:58:30.754Z,26.00
2022-12-31T15:00:58.465Z,25.90
2022-12-31T15:03:36.331Z,26.02
2022-12-31T15:06:05.505Z,25.92
2022-12-31T15:08:35.841Z,25.83
2022-12-31T15:11:05.215Z,25.79
2022-12-31T15:13:52.242Z,25.88
2022-12-31T15:16:30.913Z,25.80
2022-12-31T15:18:57.332Z,25.87
2022-12-31T15:21:23.663Z,25.89
2022-12-31T15:23:50.085Z,25.90
2022-12-31T15:26:21.177Z,25.86
2022-12-31T15:28:54.059Z,25.92
2022-12-31T15:31:20.699Z,25.90
2022-12-31T15:33:57.566Z,25.95
2022-12-31T15:36:24.989Z,25.83
2022-12-31T15:38:51.470Z,25.88
2022-12-31T15:41:37.479Z,25.73
2022-12-31T15:44:08.733Z,25.76
2022-12-31T15:46:37.355Z,25.68
2022-12-31T15:49:24.086Z,25.82
2022-12-31T15:51:51.867Z,25.75
2022-12-31T15:54:25.912Z,25.79
2022-12-31T15:56:52.442Z,25.71
2022-12-31T15:59:18.879Z,25.81
2022-12-31T16:01:45.435Z,25.73
2022-12-31T16:04:33.491Z,25.76
2022-12-31T16:07:03.860Z,25.76
2022-12-31T16:09:30.827Z,25.88
2022-12-31T16:11:57.470Z,25.83
2022-12-31T16:14:25.290Z,25.76
2022-12-31T16:16:55.506Z,25.70
2022-12-31T16:19:54.477Z,25.76
2022-12-31T16:22:27.498Z,25.76
2022-12-31T16:25:28.891Z,25.81
2022-12-31T16:27:41.381Z,25.84
2022-12-31T16:30:15.841Z,25.81
2022-12-31T16:32:42.301Z,25.83
2022-12-31T16:35:25.266Z,25.83
2022-12-31T16:38:10.586Z,25.83
2022-12-31T16:40:37.025Z,25.79
2022-12-31T16:43:03.727Z,25.82
2022-12-31T16:45:33.892Z,25.75
2022-12-31T16:48:13.012Z,25.82
2022-12-31T16:50:46.490Z,25.80
2022-12-31T16:53:13.121Z,25.79
2022-12-31T16:55:39.512Z,25.72
2022-12-31T16:58:12.422Z,25.77
2022-12-31T17:00:38.866Z,25.66
2022-12-31T17:03:15.585Z,25.71
2022-12-31T17:05:55.354Z,25.65
2022-12-31T17:08:23.740Z,25.68
2022-12-31T17:10:50.362Z,25.54
2022-12-31T17:13:29.367Z,25.66
2022-12-31T17:15:56.620Z,25.58
2022-12-31T17:18:24.200Z,25.74
2022-12-31T17:20:51.452Z,25.59
2022-12-31T17:23:21.147Z,25.65
2022-12-31T17:25:47.533Z,25.63
2022-12-31T17:28:23.843Z,25.69
2022-12-31T17:30:50.401Z,25.45
2022-12-31T17:33:19.915Z,25.56
2022-12-31T17:35:46.305Z,25.51
2022-12-31T17:38:22.087Z,25.56
2022-12-31T17:40:52.958Z,25.51
2022-12-31T17:43:20.316Z,25.64
2022-12-31T17:45:46.911Z,25.56
2022-12-31T17:48:14.175Z,25.67
2022-12-31T17:50:50.582Z,25.57
2022-12-31T17:53:17.108Z,25.71
2022-12-31T17:55:45.434Z,25.57
2022-12-31T17:58:29.837Z,25.65
2022-12-31T18:00:56.753Z,25.56
2022-12-31T18:03:23.184Z,25.67
2022-12-31T18:05:49.711Z,25.58
2022-12-31T18:08:16.150Z,25.65
2022-12-31T18:10:42.885Z,25.56
2022-12-31T18:13:35.887Z,25.66
2022-12-31T18:16:02.378Z,25.53
2022-12-31T18:18:29.729Z,25.66
2022-12-31T18:21:06.675Z,25.65
2022-12-31T18:23:43.275Z,25.71
2022-12-31T18:26:12.038Z,25.62
2022-12-31T18:28:38.453Z,25.74
2022-12-31T18:31:04.856Z,25.68
2022-12-31T18:33:31.362Z,25.72
2022-12-31T18:36:08.822Z,25.66
2022-12-31T18:38:36.300Z,25.73
2022-12-31T18:41:02.711Z,25.65
2022-12-31T18:43:29.193Z,25.71
2022-12-31T18:45:55.762Z,25.62
2022-12-31T18:48:22.227Z,25.71
2022-12-31T18:50:48.720Z,25.66
2022-12-31T18:53:16.368Z,25.63
2022-12-31T18:55:51.847Z,25.54
2022-12-31T18:58:18.400Z,25.68
2022-12-31T19:00:44.971Z,25.62
2022-12-31T19:03:15.218Z,25.65
2022-12-31T19:05:41.810Z,25.54
2022-12-31T19:08:08.328Z,25.64
2022-12-31T19:10:34.842Z,25.59
2022-12-31T19:13:01.260Z,25.68
2022-12-31T19:15:27.652Z,25.48
2022-12-31T19:17:54.094Z,25.61
2022-12-31T19:20:20.536Z,25.60
2022-12-31T19:22:47.479Z,25.69
2022-12-31T19:25:17.596Z,25.64
2022-12-31T19:27:44.000Z,25.70
2022-12-31T19:30:29.689Z,25.66
2022-12-31T19:32:56.185Z,25.68
2022-12-31T19:35:22.658Z,25.56
2022-12-31T19:37:49.671Z,25.60
2022-12-31T19:40:16.933Z,25.54
2022-12-31T19:42:43.819Z,25.61
2022-12-31T19:45:12.922Z,25.57
2022-12-31T19:47:39.342Z,25.63
2022-12-31T19:50:05.938Z,25.53
2022-12-31T19:52:32.359Z,25.63
2022-12-31T19:54:58.772Z,25.48
2022-12-31T19:57:25.265Z,25.54
2022-12-31T19:59:51.662Z,25.54
2022-12-31T20:02:18.253Z,25.59
2022-12-31T20:04:44.772Z,25.54
2022-12-31T20:07:11.325Z,25.56
2022-12-31T20:09:37.749Z,25.57
2022-12-31T20:12:04.255Z,25.60
2022-12-31T20:14:30.710Z,25.52
2022-12-31T20:16:57.177Z,25.55
2022-12-31T20:19:23.612Z,25.53
2022-12-31T20:21:50.029Z,25.46
2022-12-31T20:24:16.537Z,25.45
2022-12-31T20:26:42.933Z,25.50
2022-12-31T20:29:09.344Z,25.54
2022-12-31T20:31:35.790Z,25.51
2022-12-31T20:34:02.241Z,25.57
2022-12-31T20:36:28.669Z,25.50
2022-12-31T20:38:55.104Z,25.45
2022-12-31T20:41:21.930Z,25.41
2022-12-31T20:43:48.480Z,25.41
2022-12-31T20:46:19.537Z,25.39
2022-12-31T20:48:46.382Z,25.47
2022-12-31T20:51:13.512Z,25.48
2022-12-31T20:53:39.931Z,25.48
2022-12-31T20:56:06.749Z,25.45
2022-12-31T20:58:33.290Z,25.48
2022-12-31T21:00:59.842Z,25.37
2022-12-31T21:04:02.843Z,25.49
2022-12-31T21:06:12.932Z,25.42
2022-12-31T21:08:39.407Z,25.42
2022-12-31T21:11:28.772Z,25.32
2022-12-31T21:13:55.647Z,25.37
2022-12-31T21:16:22.193Z,25.38
2022-12-31T21:18:48.644Z,25.40
2022-12-31T21:21:15.104Z,25.39
2022-12-31T21:23:41.581Z,25.45
2022-12-31T21:26:08.417Z,25.36
2022-12-31T21:28:37.373Z,25.39
2022-12-31T21:31:04.695Z,25.31
2022-12-31T21:33:34.079Z,25.37
2022-12-31T21:36:04.572Z,25.34
2022-12-31T21:38:31.482Z,25.44
2022-12-31T21:41:01.712Z,25.41
2022-12-31T21:43:28.137Z,25.33
2022-12-31T21:46:01.680Z,25.37
2022-12-31T21:48:28.143Z,25.38
2022-12-31T21:50:58.150Z,25.41
2022-12-31T21:53:28.998Z,25.49
2022-12-31T21:56:09.612Z,25.37
2022-12-31T21:58:38.884Z,25.44
2022-12-31T22:01:24.396Z,25.28
2022-12-31T22:03:50.989Z,25.36
2022-12-31T22:06:23.732Z,25.28
2022-12-31T22:08:54.401Z,25.36
2022-12-31T22:11:21.407Z,25.32
2022-12-31T22:13:47.980Z,25.37
2022-12-31T22:16:14.559Z,25.39
2022-12-31T22:18:42.179Z,25.33
2022-12-31T22:21:15.567Z,25.44
2022-12-31T22:23:44.560Z,25.37
2022-12-31T22:26:12.213Z,25.35
2022-12-31T22:28:40.003Z,25.38
2022-12-31T22:31:07.556Z,25.36
2022-12-31T22:33:34.020Z,25.44
2022-12-31T22:36:07.412Z,25.46
2022-12-31T22:38:33.898Z,25.51
2022-12-31T22:41:00.885Z,25.44
2022-12-31T22:43:27.337Z,25.47
2022-12-31T22:45:53.813Z,25.38
2022-12-31T22:48:20.249Z,25.47
2022-12-31T22:50:53.797Z,25.40
2022-12-31T22:53:20.293Z,25.44
2022-12-31T22:55:46.728Z,25.41
2022-12-31T22:58:13.126Z,25.40
2022-12-31T23:00:42.234Z,25.40
2022-12-31T23:03:08.680Z,25.35
2022-12-31T23:05:35.253Z,25.27
2022-12-31T23:08:04.731Z,25.42
2022-12-31T23:10:53.452Z,25.29
2022-12-31T23:13:38.461Z,25.41
2022-12-31T23:16:23.484Z,25.31
2022-12-31T23:19:08.675Z,25.45
2022-12-31T23:21:53.938Z,25.48
2022-12-31T23:24:26.099Z,25.37
2022-12-31T23:26:52.880Z,25.38
2022-12-31T23:29:19.360Z,25.27
2022-12-31T23:31:45.815Z,25.46
2022-12-31T23:34:12.289Z,25.34
2022-12-31T23:36:38.756Z,25.44
2022-12-31T23:39:05.220Z,25.36
2022-12-31T23:41:31.666Z,25.40
2022-12-31T23:43:58.135Z,25.22
2022-12-31T23:46:24.598Z,25.37
2022-12-31T23:48:51.292Z,25.27
2022-12-31T23:51:17.738Z,25.33
2022-12-31T23:53:44.153Z,25.29
2022-12-31T23:56:19.164Z,25.25
2022-12-31T23:58:49.372Z,25.20
